Latch, Texas
Current Conditions -  °F | °C
As of 4:35 PM on Sunday 23 Nov 2014 (Local Time) from KOSA Reporting Station
Clear Clear  
Wind Chill: 73°   Ceiling: Unl
Heat Index: 73°   Visibility: 10mi
Dew Point: 47°   Wind: 14mph
Humidity: 39%   Direction: 220°SW
Pressure: 29.42"   Gusts: 22mph
Location:  32.7353°N, 94.9492°W
Report Text: KOSA 232235Z AUTO 22012G19KT 10SM CLR 23/09 A2942 RMK AO1 T02300085
Loading
Personal Weather Stations






























Interactive Weather Map New forecast layout! Learn more

10-Day Weather Forecast

Advertisements
Track Severe Weather on mobile